Kingsbury, IN (46345)

5:59 PM CDT on April 19, 2015 (GMT -0500)
La Porte, IN | | Change Station
CLOSE
Current Station
Personal Weather Station
Location: La Porte, IN
Elevation: 820 ft
Nearby Weather Stations

Elev 820 ft 41.59 °N, 86.73 °W | Updated 10 seconds ago

Rain
Rain
52.4 °F
Feels Like 52.4 °F
N
5.0
Wind Variable Wind from ESE
Gusts 13.0 mph

Today
High -- | Low -- °F
--% Chance of Precip.
Yesterday
High -- | Low -- °F
Precip. -- in
6:01 AM 7:31 PM
New Moon, 2% visible
Pressure 29.50 in
Visibility 3.0 miles
Clouds Mostly Cloudy 700 ft
Overcast 1300 ft
Dew Point 51 °F
Humidity 96%
Rainfall 0.53 in
Snow Depth Not available.
UV 0 out of 12
Pollen 6.20 out of 12
Air Quality Not available.
Flu Activity Local Activity
METAR KPPO 192235Z AUTO 09013G18KT 3SM -RA BKN007 OVC013 12/11 A2950 RMK AO2 LTG DSNT W P0009 T01220112

More Conditions Fewer Conditions

Pressure 29.50 in
Visibility 3.0 miles
Clouds Mostly Cloudy 700 ft
Overcast 1300 ft
Dew Point 51 °F
Humidity 96%
Rainfall 0.53 in
Snow Depth Not available.
UV 0 out of 12
Pollen 6.20 out of 12
Air Quality Not available.
Flu Activity Local Activity
METAR KPPO 192235Z AUTO 09013G18KT 3SM -RA BKN007 OVC013 12/11 A2950 RMK AO2 LTG DSNT W P0009 T01220112

More Conditions Fewer Conditions

10-Day Weather Forecast

Almanac

Astronomy

Apr. 19, 2015 Rise Set
Actual Time
Civil Twilight
Nautical Twilight
Astronomical Twilight
Moon
Length of Visible Light
Length of Day
Tomorrow will be .
, % of the Moon is Illuminated

Today's Extremes

State Highs State Lows

Community

WunderPhotos

Upload Photos

1,815,009 photos uploaded!

WunderBlogs® & News

Nearby

Air Quality

  Air Quality AQ Index Pollutant
Not available.

Snow Depth

Station Depth Elevation

Earthquake Activity

City Distance Mag. Time & Date
Minimum magnitude displayed is 2.5.

Coastal Water Temperatures

Place Temperature

Stations

Nearby Weather Stations

Station Location Temp. Windchill Dew Point Humidity Wind Precip. Elev Updated Type